createdAt,value
2017-04-21T00:00:00.957Z,73873
2017-04-21T00:00:10.469Z,73868
2017-04-21T00:00:20.557Z,73871
2017-04-21T00:00:30.651Z,73870
2017-04-21T00:00:40.739Z,73874
2017-04-21T00:00:50.835Z,73869
2017-04-21T00:01:00.933Z,73871
2017-04-21T00:01:10.448Z,73869
2017-04-21T00:01:20.539Z,73870
2017-04-21T00:01:30.635Z,73868
2017-04-21T00:01:40.719Z,73863
2017-04-21T00:01:50.811Z,73865
2017-04-21T00:02:00.914Z,73864
2017-04-21T00:02:10.998Z,73865
2017-04-21T00:02:21.108Z,73868
2017-04-21T00:02:31.200Z,73867
2017-04-21T00:02:41.296Z,73867
2017-04-21T00:02:51.428Z,73861
2017-04-21T00:03:01.521Z,73864
2017-04-21T00:03:11.330Z,73862
2017-04-21T00:03:21.132Z,73859
2017-04-21T00:03:31.220Z,73863
2017-04-21T00:03:41.317Z,73865
2017-04-21T00:03:51.453Z,73863
2017-04-21T00:04:01.843Z,73865
2017-04-21T00:04:11.931Z,73863
2017-04-21T00:04:21.733Z,73861
2017-04-21T00:04:31.824Z,73861
2017-04-21T00:04:41.913Z,73863
2017-04-21T00:04:52.006Z,73863
2017-04-21T00:05:02.092Z,73859
2017-04-21T00:05:12.178Z,73858
2017-04-21T00:05:22.267Z,73860
2017-04-21T00:05:32.068Z,73860
2017-04-21T00:05:41.870Z,73860
2017-04-21T00:05:51.957Z,73860
2017-04-21T00:06:02.040Z,73859
2017-04-21T00:06:11.552Z,73861
2017-04-21T00:06:21.638Z,73861
2017-04-21T00:06:31.723Z,73864
2017-04-21T00:06:41.815Z,73864
2017-04-21T00:06:51.904Z,73863
2017-04-21T00:07:01.987Z,73865
2017-04-21T00:07:11.821Z,73866
2017-04-21T00:07:21.910Z,73864
2017-04-21T00:07:31.720Z,73859
2017-04-21T00:07:41.521Z,73860
2017-04-21T00:07:51.611Z,73861
2017-04-21T00:08:01.418Z,73864
2017-04-21T00:08:11.506Z,73861
2017-04-21T00:08:21.601Z,73864
2017-04-21T00:08:31.417Z,73864
2017-04-21T00:08:41.505Z,73865
2017-04-21T00:08:51.600Z,73861
2017-04-21T00:09:01.685Z,73860
2017-04-21T00:09:11.772Z,73863
2017-04-21T00:09:21.874Z,73861
2017-04-21T00:09:31.676Z,73859
2017-04-21T00:09:41.483Z,73859
2017-04-21T00:09:51.572Z,73858
2017-04-21T00:10:01.654Z,73862
2017-04-21T00:10:11.744Z,73863
2017-04-21T00:10:21.846Z,73858
2017-04-21T00:10:31.932Z,73862
2017-04-21T00:10:42.184Z,73862
2017-04-21T00:10:52.268Z,73861
2017-04-21T00:11:02.358Z,73862
2017-04-21T00:11:12.460Z,73862
2017-04-21T00:11:22.269Z,73858
2017-04-21T00:11:32.066Z,73859
2017-04-21T00:11:42.155Z,73859
2017-04-21T00:11:52.531Z,73860
2017-04-21T00:12:02.616Z,73858
2017-04-21T00:12:12.707Z,73859
2017-04-21T00:12:22.504Z,73860
2017-04-21T00:12:32.593Z,73857
2017-04-21T00:12:42.680Z,73861
2017-04-21T00:12:52.493Z,73858
2017-04-21T00:13:02.715Z,73858
2017-04-21T00:13:12.807Z,73857
2017-04-21T00:13:22.894Z,73858
2017-04-21T00:13:32.981Z,73859
2017-04-21T00:13:43.068Z,73861
2017-04-21T00:13:53.156Z,73861
2017-04-21T00:14:03.242Z,73862
2017-04-21T00:14:13.040Z,73861
2017-04-21T00:14:22.839Z,73861
2017-04-21T00:14:32.653Z,73861
2017-04-21T00:14:42.743Z,73860
2017-04-21T00:14:52.827Z,73861
2017-04-21T00:15:02.915Z,73859
2017-04-21T00:15:13.010Z,73863
2017-04-21T00:15:23.097Z,73862
2017-04-21T00:15:33.181Z,73859
2017-04-21T00:15:43.270Z,73861
2017-04-21T00:15:53.072Z,73857
2017-04-21T00:16:03.159Z,73860
2017-04-21T00:16:12.961Z,73861
2017-04-21T00:16:22.765Z,73863
2017-04-21T00:16:32.853Z,73861
2017-04-21T00:16:42.942Z,73858
2017-04-21T00:16:53.035Z,73859
2017-04-21T00:17:03.119Z,73856
2017-04-21T00:17:12.643Z,73856
2017-04-21T00:17:22.730Z,73853
2017-04-21T00:17:32.529Z,73853
2017-04-21T00:17:42.625Z,73856
2017-04-21T00:17:52.716Z,73857
2017-04-21T00:18:02.515Z,73856
2017-04-21T00:18:12.317Z,73852
2017-04-21T00:18:22.404Z,73852
2017-04-21T00:18:32.230Z,73852
2017-04-21T00:18:42.407Z,73855
2017-04-21T00:18:52.496Z,73855
2017-04-21T00:19:02.297Z,73856
2017-04-21T00:19:12.387Z,73854
2017-04-21T00:19:22.479Z,73854
2017-04-21T00:19:32.566Z,73854
2017-04-21T00:19:42.654Z,73852
2017-04-21T00:19:52.701Z,73850
2017-04-21T00:20:02.785Z,73851
2017-04-21T00:20:12.583Z,73851
2017-04-21T00:20:22.680Z,73851
2017-04-21T00:20:32.767Z,73855
2017-04-21T00:20:42.563Z,73852
2017-04-21T00:20:52.649Z,73851
2017-04-21T00:21:02.768Z,73851
2017-04-21T00:21:12.572Z,73848
2017-04-21T00:21:22.662Z,73850
2017-04-21T00:21:32.748Z,73852
2017-04-21T00:21:42.834Z,73848
2017-04-21T00:21:52.628Z,73851
2017-04-21T00:22:02.714Z,73851
2017-04-21T00:22:12.912Z,73849
2017-04-21T00:22:23.002Z,73852
2017-04-21T00:22:32.803Z,73850
2017-04-21T00:22:42.594Z,73851
2017-04-21T00:22:52.692Z,73852
2017-04-21T00:23:02.777Z,73852
2017-04-21T00:23:13.045Z,73849
2017-04-21T00:23:23.134Z,73852
2017-04-21T00:23:33.222Z,73852
2017-04-21T00:23:43.312Z,73853
2017-04-21T00:23:53.114Z,73850
2017-04-21T00:24:03.198Z,73851
2017-04-21T00:24:13.283Z,73848
2017-04-21T00:24:23.079Z,73851
2017-04-21T00:24:33.170Z,73850
2017-04-21T00:24:42.981Z,73853
2017-04-21T00:24:52.786Z,73850
2017-04-21T00:25:02.896Z,73851
2017-04-21T00:25:12.694Z,73853
2017-04-21T00:25:22.790Z,73848
2017-04-21T00:25:32.620Z,73849
2017-04-21T00:25:42.425Z,73846
2017-04-21T00:25:52.513Z,73846
2017-04-21T00:26:02.611Z,73848
2017-04-21T00:26:12.699Z,73848
2017-04-21T00:26:22.786Z,73853
2017-04-21T00:26:32.866Z,73847
2017-04-21T00:26:43.228Z,73847
2017-04-21T00:26:53.317Z,73848
2017-04-21T00:27:03.407Z,73849
2017-04-21T00:27:13.498Z,73849
2017-04-21T00:27:23.307Z,73851
2017-04-21T00:27:33.402Z,73846
2017-04-21T00:27:43.492Z,73845
2017-04-21T00:27:53.718Z,73845
2017-04-21T00:28:03.806Z,73848
2017-04-21T00:28:13.895Z,73849
2017-04-21T00:28:23.990Z,73848
2017-04-21T00:28:33.792Z,73852
2017-04-21T00:28:43.591Z,73851
2017-04-21T00:28:53.682Z,73851
2017-04-21T00:29:03.721Z,73851
2017-04-21T00:29:13.531Z,73851
2017-04-21T00:29:23.623Z,73847
2017-04-21T00:29:33.141Z,73848
2017-04-21T00:29:43.237Z,73848
2017-04-21T00:29:53.347Z,73848
2017-04-21T00:30:03.471Z,73849
2017-04-21T00:30:12.989Z,73847
2017-04-21T00:30:22.790Z,73847
2017-04-21T00:30:32.872Z,73850
2017-04-21T00:30:42.955Z,73852
2017-04-21T00:30:53.047Z,73847
2017-04-21T00:31:03.131Z,73845
2017-04-21T00:31:13.218Z,73843
2017-04-21T00:31:23.301Z,73841
2017-04-21T00:31:33.388Z,73843
2017-04-21T00:31:43.479Z,73843
2017-04-21T00:31:53.564Z,73844
2017-04-21T00:32:03.365Z,73841
2017-04-21T00:32:13.161Z,73842
2017-04-21T00:32:23.257Z,73846
2017-04-21T00:32:33.351Z,73846
2017-04-21T00:32:43.160Z,73845
2017-04-21T00:32:53.280Z,73844
2017-04-21T00:33:03.383Z,73845
2017-04-21T00:33:13.473Z,73845
2017-04-21T00:33:23.295Z,73847
2017-04-21T00:33:33.462Z,73849
2017-04-21T00:33:43.550Z,73844
2017-04-21T00:33:53.647Z,73841
2017-04-21T00:34:03.445Z,73843
2017-04-21T00:34:13.247Z,73844
2017-04-21T00:34:23.045Z,73843
2017-04-21T00:34:33.377Z,73844
2017-04-21T00:34:43.465Z,73846
2017-04-21T00:34:53.553Z,73840
2017-04-21T00:35:03.367Z,73844
2017-04-21T00:35:13.474Z,73843
2017-04-21T00:35:23.281Z,73843
2017-04-21T00:35:33.368Z,73843
2017-04-21T00:35:43.334Z,73843
2017-04-21T00:35:53.421Z,73844
2017-04-21T00:36:03.508Z,73845
2017-04-21T00:36:13.307Z,73844
2017-04-21T00:36:23.114Z,73844
2017-04-21T00:36:32.913Z,73846
2017-04-21T00:36:43.003Z,73842
2017-04-21T00:36:53.098Z,73845
2017-04-21T00:37:02.897Z,73845
2017-04-21T00:37:12.992Z,73842
2017-04-21T00:37:22.796Z,73844
2017-04-21T00:37:32.882Z,73844
2017-04-21T00:37:42.974Z,73842
2017-04-21T00:37:53.064Z,73843
2017-04-21T00:38:03.320Z,73843
2017-04-21T00:38:13.407Z,73845
2017-04-21T00:38:23.498Z,73844
2017-04-21T00:38:33.588Z,73842
2017-04-21T00:38:43.111Z,73845
2017-04-21T00:38:53.205Z,73845
2017-04-21T00:39:03.304Z,73846
2017-04-21T00:39:13.247Z,73841
2017-04-21T00:39:23.347Z,73845
2017-04-21T00:39:33.443Z,73847
2017-04-21T00:39:43.526Z,73845
2017-04-21T00:39:53.615Z,73846
2017-04-21T00:40:03.707Z,73849
2017-04-21T00:40:13.828Z,73846
2017-04-21T00:40:23.915Z,73846
2017-04-21T00:40:33.997Z,73845
2017-04-21T00:40:44.081Z,73843
2017-04-21T00:40:54.167Z,73844
2017-04-21T00:41:04.255Z,73843
2017-04-21T00:41:14.340Z,73839
2017-04-21T00:41:23.922Z,73848
2017-04-21T00:41:33.741Z,73848
2017-04-21T00:41:43.828Z,73845
2017-04-21T00:41:53.911Z,73846
2017-04-21T00:42:03.420Z,73843
2017-04-21T00:42:13.504Z,73847
2017-04-21T00:42:23.588Z,73845
2017-04-21T00:42:33.423Z,73846
2017-04-21T00:42:43.515Z,73843
2017-04-21T00:42:53.615Z,73843
2017-04-21T00:43:03.704Z,73843
2017-04-21T00:43:13.499Z,73846
2017-04-21T00:43:23.587Z,73845
2017-04-21T00:43:33.677Z,73843
2017-04-21T00:43:43.553Z,73846
2017-04-21T00:43:53.643Z,73843
2017-04-21T00:44:03.729Z,73843
2017-04-21T00:44:13.820Z,73844
2017-04-21T00:44:23.918Z,73845
2017-04-21T00:44:34.003Z,73846
2017-04-21T00:44:44.087Z,73846
2017-04-21T00:44:54.439Z,73843
2017-04-21T00:45:04.527Z,73847
2017-04-21T00:45:14.614Z,73845
2017-04-21T00:45:24.702Z,73845
2017-04-21T00:45:34.786Z,73843
2017-04-21T00:45:44.584Z,73842
2017-04-21T00:45:54.667Z,73845
2017-04-21T00:46:04.861Z,73845
2017-04-21T00:46:14.374Z,73848
2017-04-21T00:46:24.462Z,73846
2017-04-21T00:46:34.556Z,73848
2017-04-21T00:46:44.641Z,73852
2017-04-21T00:46:54.445Z,73847
2017-04-21T00:47:04.780Z,73852
2017-04-21T00:47:14.293Z,73851
2017-04-21T00:47:24.096Z,73850
2017-04-21T00:47:34.201Z,73851
2017-04-21T00:47:44.292Z,73852
2017-04-21T00:47:54.383Z,73846
2017-04-21T00:48:04.475Z,73846
2017-04-21T00:48:14.587Z,73846
2017-04-21T00:48:24.688Z,73845
2017-04-21T00:48:34.782Z,73840
2017-04-21T00:48:44.879Z,73841
2017-04-21T00:48:54.966Z,73838
2017-04-21T00:49:05.055Z,73837
2017-04-21T00:49:15.145Z,73842
2017-04-21T00:49:25.432Z,73839
2017-04-21T00:49:35.521Z,73830
2017-04-21T00:49:45.612Z,73834
2017-04-21T00:49:55.707Z,73838
2017-04-21T00:50:05.518Z,73837
2017-04-21T00:50:15.600Z,73836
2017-04-21T00:50:25.692Z,73835
2017-04-21T00:50:35.782Z,73833
2017-04-21T00:50:45.580Z,73836
2017-04-21T00:50:55.669Z,73836
2017-04-21T00:51:05.778Z,73836
2017-04-21T00:51:15.863Z,73840
2017-04-21T00:51:25.957Z,73842
2017-04-21T00:51:36.086Z,73841
2017-04-21T00:51:46.177Z,73842
2017-04-21T00:51:56.268Z,73837
2017-04-21T00:52:06.391Z,73836
2017-04-21T00:52:16.480Z,73837
2017-04-21T00:52:26.568Z,73836
2017-04-21T00:52:36.657Z,73833
2017-04-21T00:52:46.464Z,73836
2017-04-21T00:52:56.556Z,73837
2017-04-21T00:53:06.665Z,73836
2017-04-21T00:53:16.754Z,73836
2017-04-21T00:53:26.847Z,73838
2017-04-21T00:53:36.955Z,73838
2017-04-21T00:53:47.055Z,73836
2017-04-21T00:53:57.145Z,73836
2017-04-21T00:54:06.950Z,73832
2017-04-21T00:54:17.043Z,73830
2017-04-21T00:54:27.133Z,73832
2017-04-21T00:54:37.222Z,73838
2017-04-21T00:54:47.025Z,73834
2017-04-21T00:54:57.124Z,73833
2017-04-21T00:55:07.132Z,73836
2017-04-21T00:55:16.933Z,73834
2017-04-21T00:55:27.018Z,73834
2017-04-21T00:55:37.108Z,73835
2017-04-21T00:55:46.912Z,73837
2017-04-21T00:55:56.714Z,73836
2017-04-21T00:56:06.803Z,73835
2017-04-21T00:56:16.893Z,73840
2017-04-21T00:56:26.977Z,73836
2017-04-21T00:56:37.064Z,73834
2017-04-21T00:56:47.155Z,73832
2017-04-21T00:56:57.243Z,73833
2017-04-21T00:57:07.329Z,73832
2017-04-21T00:57:17.608Z,73833
2017-04-21T00:57:27.763Z,73834
2017-04-21T00:57:37.849Z,73833
2017-04-21T00:57:47.938Z,73835
2017-04-21T00:57:57.743Z,73835
2017-04-21T00:58:07.542Z,73831
2017-04-21T00:58:17.344Z,73835
2017-04-21T00:58:27.443Z,73837
2017-04-21T00:58:37.536Z,73831
2017-04-21T00:58:47.626Z,73834
2017-04-21T00:58:57.426Z,73832
2017-04-21T00:59:07.512Z,73832
2017-04-21T00:59:17.026Z,73834
2017-04-21T00:59:27.114Z,73834
2017-04-21T00:59:36.907Z,73832
2017-04-21T00:59:46.704Z,73831
2017-04-21T00:59:56.799Z,73833
2017-04-21T01:00:06.894Z,73832
2017-04-21T01:00:16.987Z,73832
2017-04-21T01:00:27.070Z,73832
2017-04-21T01:00:37.165Z,73833
2017-04-21T01:00:47.251Z,73832
2017-04-21T01:00:57.336Z,73832
2017-04-21T01:01:07.429Z,73838
2017-04-21T01:01:17.234Z,73834
2017-04-21T01:01:27.036Z,73834
2017-04-21T01:01:37.153Z,73838
2017-04-21T01:01:47.475Z,73837
2017-04-21T01:01:57.746Z,73842
2017-04-21T01:02:07.831Z,73839
2017-04-21T01:02:17.927Z,73838
2017-04-21T01:02:28.012Z,73839
2017-04-21T01:02:37.806Z,73835
2017-04-21T01:02:47.611Z,73838
2017-04-21T01:02:57.414Z,73834
2017-04-21T01:03:07.500Z,73833
2017-04-21T01:03:17.302Z,73833
2017-04-21T01:03:27.391Z,73835
2017-04-21T01:03:37.483Z,73836
2017-04-21T01:03:47.585Z,73831
2017-04-21T01:03:57.674Z,73837
2017-04-21T01:04:07.763Z,73834
2017-04-21T01:04:17.860Z,73833
2017-04-21T01:04:27.945Z,73838
2017-04-21T01:04:38.039Z,73836
2017-04-21T01:04:48.130Z,73837
2017-04-21T01:04:58.229Z,73834
2017-04-21T01:05:08.033Z,73833
2017-04-21T01:05:17.841Z,73836
2017-04-21T01:05:27.925Z,73836
2017-04-21T01:05:38.016Z,73837
2017-04-21T01:05:48.109Z,73836
2017-04-21T01:05:58.193Z,73836
2017-04-21T01:06:08.280Z,73835
2017-04-21T01:06:18.373Z,73835
2017-04-21T01:06:28.466Z,73835
2017-04-21T01:06:38.553Z,73830
2017-04-21T01:06:48.639Z,73835
2017-04-21T01:06:58.724Z,73833
2017-04-21T01:07:08.527Z,73833
2017-04-21T01:07:18.616Z,73833
2017-04-21T01:07:28.433Z,73837
2017-04-21T01:07:38.533Z,73835
2017-04-21T01:07:48.620Z,73837
2017-04-21T01:07:58.422Z,73838
2017-04-21T01:08:08.226Z,73837
2017-04-21T01:08:18.311Z,73839
2017-04-21T01:08:28.410Z,73836
2017-04-21T01:08:38.323Z,73838
2017-04-21T01:08:48.428Z,73839
2017-04-21T01:08:58.528Z,73838
2017-04-21T01:09:08.335Z,73837
2017-04-21T01:09:18.441Z,73837
2017-04-21T01:09:28.536Z,73837
2017-04-21T01:09:38.624Z,73835
2017-04-21T01:09:48.962Z,73834
2017-04-21T01:09:58.761Z,73835
2017-04-21T01:10:08.847Z,73833
2017-04-21T01:10:18.652Z,73838
2017-04-21T01:10:28.743Z,73837
2017-04-21T01:10:38.838Z,73834
2017-04-21T01:10:48.928Z,73835
2017-04-21T01:10:59.085Z,73836
2017-04-21T01:11:08.888Z,73836
2017-04-21T01:11:18.977Z,73839
2017-04-21T01:11:29.068Z,73837
2017-04-21T01:11:38.869Z,73834
2017-04-21T01:11:48.960Z,73836
2017-04-21T01:11:59.046Z,73835
2017-04-21T01:12:08.867Z,73831
2017-04-21T01:12:18.680Z,73831
2017-04-21T01:12:28.768Z,73834
2017-04-21T01:12:38.851Z,73832
2017-04-21T01:12:48.943Z,73834
2017-04-21T01:12:59.046Z,73837
2017-04-21T01:13:09.154Z,73836
2017-04-21T01:13:19.455Z,73836
2017-04-21T01:13:29.547Z,73835
2017-04-21T01:13:39.640Z,73835
2017-04-21T01:13:49.732Z,73835
2017-04-21T01:13:59.821Z,73833
2017-04-21T01:14:09.902Z,73832
2017-04-21T01:14:20.003Z,73833
2017-04-21T01:14:30.092Z,73831
2017-04-21T01:14:39.620Z,73831
2017-04-21T01:14:49.710Z,73834
2017-04-21T01:14:59.511Z,73834
2017-04-21T01:15:09.603Z,73835
2017-04-21T01:15:19.688Z,73832
2017-04-21T01:15:29.877Z,73838
2017-04-21T01:15:39.965Z,73837
2017-04-21T01:15:50.054Z,73841
2017-04-21T01:15:59.858Z,73841
2017-04-21T01:16:09.963Z,73840
2017-04-21T01:16:20.048Z,73842
2017-04-21T01:16:30.159Z,73837
2017-04-21T01:16:40.249Z,73842
2017-04-21T01:16:50.343Z,73840
2017-04-21T01:17:00.434Z,73843
2017-04-21T01:17:10.527Z,73839
2017-04-21T01:17:20.613Z,73834
2017-04-21T01:17:30.725Z,73830
2017-04-21T01:17:40.914Z,73831
2017-04-21T01:17:50.908Z,73829
2017-04-21T01:18:00.713Z,73830
2017-04-21T01:18:10.812Z,73829
2017-04-21T01:18:20.339Z,73832
2017-04-21T01:18:30.423Z,73834
2017-04-21T01:18:40.227Z,73831
2017-04-21T01:18:50.325Z,73831
2017-04-21T01:19:00.684Z,73835
2017-04-21T01:19:10.774Z,73833
2017-04-21T01:19:20.860Z,73836
2017-04-21T01:19:30.664Z,73833
2017-04-21T01:19:40.758Z,73834
2017-04-21T01:19:50.560Z,73835
2017-04-21T01:20:00.365Z,73835
2017-04-21T01:20:10.461Z,73834
2017-04-21T01:20:20.549Z,73830
2017-04-21T01:20:30.635Z,73833
2017-04-21T01:20:40.726Z,73833
2017-04-21T01:20:50.812Z,73832
2017-04-21T01:21:00.917Z,73833
2017-04-21T01:21:11.006Z,73833
2017-04-21T01:21:21.089Z,73833
2017-04-21T01:21:31.175Z,73831
2017-04-21T01:21:40.970Z,73832
2017-04-21T01:21:51.055Z,73830
2017-04-21T01:22:01.157Z,73831
2017-04-21T01:22:10.963Z,73830
2017-04-21T01:22:20.757Z,73829
2017-04-21T01:22:30.843Z,73829
2017-04-21T01:22:40.923Z,73828
2017-04-21T01:22:50.722Z,73827
2017-04-21T01:23:00.812Z,73828
2017-04-21T01:23:10.899Z,73830
2017-04-21T01:23:20.989Z,73830
2017-04-21T01:23:31.266Z,73830
2017-04-21T01:23:41.366Z,73832
2017-04-21T01:23:51.455Z,73831
2017-04-21T01:24:01.543Z,73832
2017-04-21T01:24:11.342Z,73834
2017-04-21T01:24:21.434Z,73831
2017-04-21T01:24:31.921Z,73831
2017-04-21T01:24:42.201Z,73830
2017-04-21T01:24:52.296Z,73828
2017-04-21T01:25:02.387Z,73829
2017-04-21T01:25:12.478Z,73825
2017-04-21T01:25:22.569Z,73828
2017-04-21T01:25:32.657Z,73826
2017-04-21T01:25:42.703Z,73826
2017-04-21T01:25:52.907Z,73830
2017-04-21T01:26:02.989Z,73832
2017-04-21T01:26:13.074Z,73832
2017-04-21T01:26:22.876Z,73829
2017-04-21T01:26:32.672Z,73832
2017-04-21T01:26:42.784Z,73831
2017-04-21T01:26:52.995Z,73832
2017-04-21T01:27:03.080Z,73834
2017-04-21T01:27:13.165Z,73834
2017-04-21T01:27:23.267Z,73834
2017-04-21T01:27:33.078Z,73832
2017-04-21T01:27:42.884Z,73832
2017-04-21T01:27:52.972Z,73831
2017-04-21T01:28:03.171Z,73827
2017-04-21T01:28:13.260Z,73830
2017-04-21T01:28:23.357Z,73830
2017-04-21T01:28:33.444Z,73832
2017-04-21T01:28:43.540Z,73829
2017-04-21T01:28:53.638Z,73831
2017-04-21T01:29:03.794Z,73829
2017-04-21T01:29:13.896Z,73828
2017-04-21T01:29:23.991Z,73830
2017-04-21T01:29:33.795Z,73832
2017-04-21T01:29:43.891Z,73831
2017-04-21T01:29:53.981Z,73831
2017-04-21T01:30:04.076Z,73831
2017-04-21T01:30:13.944Z,73832
2017-04-21T01:30:23.744Z,73832
2017-04-21T01:30:33.831Z,73830
2017-04-21T01:30:43.920Z,73831
2017-04-21T01:30:54.017Z,73829
2017-04-21T01:31:04.107Z,73828
2017-04-21T01:31:13.908Z,73830
2017-04-21T01:31:23.992Z,73832
2017-04-21T01:31:34.084Z,73831
2017-04-21T01:31:43.595Z,73832
2017-04-21T01:31:53.681Z,73833
2017-04-21T01:32:03.778Z,73837
2017-04-21T01:32:13.578Z,73832
2017-04-21T01:32:23.667Z,73836
2017-04-21T01:32:33.465Z,73837
2017-04-21T01:32:43.265Z,73834
2017-04-21T01:32:53.360Z,73835
2017-04-21T01:33:03.455Z,73836
2017-04-21T01:33:13.266Z,73836
2017-04-21T01:33:23.354Z,73834
2017-04-21T01:33:33.454Z,73832
2017-04-21T01:33:43.547Z,73834
2017-04-21T01:33:53.646Z,73834
2017-04-21T01:34:03.457Z,73833
2017-04-21T01:34:13.545Z,73834
2017-04-21T01:34:23.643Z,73833
2017-04-21T01:34:33.731Z,73830
2017-04-21T01:34:43.664Z,73832
2017-04-21T01:34:53.648Z,73833
2017-04-21T01:35:03.742Z,73833
2017-04-21T01:35:13.546Z,73832
2017-04-21T01:35:23.634Z,73834
2017-04-21T01:35:33.719Z,73833
2017-04-21T01:35:43.808Z,73835
2017-04-21T01:35:54.063Z,73833
2017-04-21T01:36:04.151Z,73835
2017-04-21T01:36:14.237Z,73838
2017-04-21T01:36:24.326Z,73837
2017-04-21T01:36:34.415Z,73835
2017-04-21T01:36:44.508Z,73834
2017-04-21T01:36:54.597Z,73836
2017-04-21T01:37:04.112Z,73837
2017-04-21T01:37:14.197Z,73833
2017-04-21T01:37:23.992Z,73833
2017-04-21T01:37:34.081Z,73834
2017-04-21T01:37:44.171Z,73835
2017-04-21T01:37:54.259Z,73833
2017-04-21T01:38:04.058Z,73832
2017-04-21T01:38:14.161Z,73834
2017-04-21T01:38:23.971Z,73831
2017-04-21T01:38:34.065Z,73831
2017-04-21T01:38:43.870Z,73832
2017-04-21T01:38:53.958Z,73828
2017-04-21T01:39:04.043Z,73832
2017-04-21T01:39:14.139Z,73828
2017-04-21T01:39:24.480Z,73831
2017-04-21T01:39:34.282Z,73829
2017-04-21T01:39:44.374Z,73830
2017-04-21T01:39:54.465Z,73833
2017-04-21T01:40:04.562Z,73829
2017-04-21T01:40:14.648Z,73830
2017-04-21T01:40:24.737Z,73831
2017-04-21T01:40:34.537Z,73830
2017-04-21T01:40:44.625Z,73830
2017-04-21T01:40:54.709Z,73831
2017-04-21T01:41:04.805Z,73830
2017-04-21T01:41:14.603Z,73829
2017-04-21T01:41:24.698Z,73829
2017-04-21T01:41:34.787Z,73827
2017-04-21T01:41:44.874Z,73834
2017-04-21T01:41:54.960Z,73826
2017-04-21T01:42:05.046Z,73830
2017-04-21T01:42:15.136Z,73832
2017-04-21T01:42:25.230Z,73828
2017-04-21T01:42:35.321Z,73830
2017-04-21T01:42:45.499Z,73828
2017-04-21T01:42:55.591Z,73828
2017-04-21T01:43:05.680Z,73827
2017-04-21T01:43:15.772Z,73828
2017-04-21T01:43:25.860Z,73825
2017-04-21T01:43:35.660Z,73827
2017-04-21T01:43:45.707Z,73829
2017-04-21T01:43:56.084Z,73827
2017-04-21T01:44:05.894Z,73827
2017-04-21T01:44:15.696Z,73830
2017-04-21T01:44:25.787Z,73827
2017-04-21T01:44:35.873Z,73829
2017-04-21T01:44:45.960Z,73828
2017-04-21T01:44:56.071Z,73827
2017-04-21T01:45:05.890Z,73827
2017-04-21T01:45:15.689Z,73825
2017-04-21T01:45:25.784Z,73831
2017-04-21T01:45:35.588Z,73827
2017-04-21T01:45:45.675Z,73825
2017-04-21T01:45:55.762Z,73826
2017-04-21T01:46:05.938Z,73825
2017-04-21T01:46:15.738Z,73826
2017-04-21T01:46:25.827Z,73827
2017-04-21T01:46:35.940Z,73829
2017-04-21T01:46:46.031Z,73830
2017-04-21T01:46:56.119Z,73832
2017-04-21T01:47:06.213Z,73831
2017-04-21T01:47:16.375Z,73829
2017-04-21T01:47:26.473Z,73830
2017-04-21T01:47:36.283Z,73825
2017-04-21T01:47:46.378Z,73827
2017-04-21T01:47:56.469Z,73831
2017-04-21T01:48:06.273Z,73828
2017-04-21T01:48:16.369Z,73828
2017-04-21T01:48:26.243Z,73832
2017-04-21T01:48:36.344Z,73828
2017-04-21T01:48:46.445Z,73825
2017-04-21T01:48:56.535Z,73826
2017-04-21T01:49:06.631Z,73831
2017-04-21T01:49:16.728Z,73829
2017-04-21T01:49:27.040Z,73828
2017-04-21T01:49:37.137Z,73831
2017-04-21T01:49:47.229Z,73827
2017-04-21T01:49:57.326Z,73834
2017-04-21T01:50:07.130Z,73830
2017-04-21T01:50:16.930Z,73834
2017-04-21T01:50:27.014Z,73832
2017-04-21T01:50:37.104Z,73828
2017-04-21T01:50:47.192Z,73826
2017-04-21T01:50:57.277Z,73828
2017-04-21T01:51:07.366Z,73825
2017-04-21T01:51:17.451Z,73823
2017-04-21T01:51:27.538Z,73824
2017-04-21T01:51:37.628Z,73825
2017-04-21T01:51:47.714Z,73821
2017-04-21T01:51:57.517Z,73820
2017-04-21T01:52:07.607Z,73820
2017-04-21T01:52:17.695Z,73823
2017-04-21T01:52:27.780Z,73821
2017-04-21T01:52:37.589Z,73823
2017-04-21T01:52:47.893Z,73825
2017-04-21T01:52:57.990Z,73825
2017-04-21T01:53:08.076Z,73823
2017-04-21T01:53:18.163Z,73824
2017-04-21T01:53:28.250Z,73826
2017-04-21T01:53:38.339Z,73823
2017-04-21T01:53:48.430Z,73826
2017-04-21T01:53:58.852Z,73829
2017-04-21T01:54:09.161Z,73825
2017-04-21T01:54:18.961Z,73831
2017-04-21T01:54:29.047Z,73828
2017-04-21T01:54:39.134Z,73825
2017-04-21T01:54:49.222Z,73829
2017-04-21T01:54:59.306Z,73827
2017-04-21T01:55:09.283Z,73827
2017-04-21T01:55:19.378Z,73826
2017-04-21T01:55:29.468Z,73825
2017-04-21T01:55:39.554Z,73825
2017-04-21T01:55:49.641Z,73826
2017-04-21T01:55:59.731Z,73827
2017-04-21T01:56:09.530Z,73827
2017-04-21T01:56:19.617Z,73831
2017-04-21T01:56:29.704Z,73831
2017-04-21T01:56:39.787Z,73830
2017-04-21T01:56:49.875Z,73830
2017-04-21T01:56:59.965Z,73830
2017-04-21T01:57:10.051Z,73832
2017-04-21T01:57:20.146Z,73829
2017-04-21T01:57:30.248Z,73825
2017-04-21T01:57:40.335Z,73826
2017-04-21T01:57:50.433Z,73823
2017-04-21T01:58:00.526Z,73820
2017-04-21T01:58:10.630Z,73821
2017-04-21T01:58:20.728Z,73817
2017-04-21T01:58:30.821Z,73819
2017-04-21T01:58:40.920Z,73819
2017-04-21T01:58:51.011Z,73819
2017-04-21T01:59:01.112Z,73819
2017-04-21T01:59:10.918Z,73824
2017-04-21T01:59:21.008Z,73822
2017-04-21T01:59:31.096Z,73822
2017-04-21T01:59:41.009Z,73819
2017-04-21T01:59:50.812Z,73820
2017-04-21T02:00:00.912Z,73820
2017-04-21T02:00:10.713Z,73819
2017-04-21T02:00:20.820Z,73821
2017-04-21T02:00:30.910Z,73818
2017-04-21T02:00:40.713Z,73816
2017-04-21T02:00:51.029Z,73818
2017-04-21T02:01:00.830Z,73817
2017-04-21T02:01:10.912Z,73819
2017-04-21T02:01:21.004Z,73820
2017-04-21T02:01:30.818Z,73821
2017-04-21T02:01:40.913Z,73819
2017-04-21T02:01:51.008Z,73823
2017-04-21T02:02:01.033Z,73824
2017-04-21T02:02:10.857Z,73824
2017-04-21T02:02:20.652Z,73822
2017-04-21T02:02:30.739Z,73823
2017-04-21T02:02:40.825Z,73825
2017-04-21T02:02:50.917Z,73827
2017-04-21T02:03:01.126Z,73827
2017-04-21T02:03:11.424Z,73825
2017-04-21T02:03:21.511Z,73826
2017-04-21T02:03:31.592Z,73821
2017-04-21T02:03:41.684Z,73822
2017-04-21T02:03:51.484Z,73821
2017-04-21T02:04:01.286Z,73820
2017-04-21T02:04:11.389Z,73821
2017-04-21T02:04:21.196Z,73819
2017-04-21T02:04:30.995Z,73820
2017-04-21T02:04:41.090Z,73822
2017-04-21T02:04:51.182Z,73822
2017-04-21T02:05:01.285Z,73822
2017-04-21T02:05:11.372Z,73824
2017-04-21T02:05:21.429Z,73824
2017-04-21T02:05:31.261Z,73823
2017-04-21T02:05:41.059Z,73823
2017-04-21T02:05:51.152Z,73826
2017-04-21T02:06:01.245Z,73826
2017-04-21T02:06:11.336Z,73826
2017-04-21T02:06:21.442Z,73826
2017-04-21T02:06:31.469Z,73823
2017-04-21T02:06:41.562Z,73824
2017-04-21T02:06:51.653Z,73825
2017-04-21T02:07:01.738Z,73822
2017-04-21T02:07:11.831Z,73828
2017-04-21T02:07:21.637Z,73824
2017-04-21T02:07:31.724Z,73822
2017-04-21T02:07:41.753Z,73825
2017-04-21T02:07:51.839Z,73824
2017-04-21T02:08:01.927Z,73826
2017-04-21T02:08:11.726Z,73827
2017-04-21T02:08:21.531Z,73826
2017-04-21T02:08:31.645Z,73824
2017-04-21T02:08:41.742Z,73822
2017-04-21T02:08:51.838Z,73828
2017-04-21T02:09:01.927Z,73828